Time;durP1;ratioP1;P1;durP2;ratioP2;P2;SDS_P1;SDS_P2;PMS_P1;PMS_P2;Temp;Humidity;BMP_temperature;BMP_pressure;BME280_temperature;BME280_humidity;BME280_pressure;Samples;Min_cycle;Max_cycle;Signal;HPM_P1;HPM_P2
2023/12/22 00:08:12;;;;;;;0.30;0.17;;;;;;;;;;21023826;28;20216;-69
2023/12/22 00:18:14;;;;;;;0.20;0.10;;;;;;;;;;21038716;28;20277;-69
2023/12/22 00:28:16;;;;;;;1.03;0.40;;;;;;;;;;21037580;28;20286;-69
2023/12/22 00:38:18;;;;;;;0.13;0.10;;;;;;;;;;21020848;28;20254;-67
2023/12/22 00:48:20;;;;;;;0.20;0.20;;;;;;;;;;21019390;28;20213;-68
2023/12/22 00:58:21;;;;;;;1.30;0.47;;;;;;;;;;21019093;28;20216;-68
2023/12/22 01:08:23;;;;;;;1.30;0.40;;;;;;;;;;21016353;28;20223;-67
2023/12/22 01:18:28;;;;;;;0.87;0.73;;;;;;;;;;21050873;28;20216;-68
2023/12/22 01:28:31;;;;;;;2.77;0.60;;;;;;;;;;21025241;28;20557;-67
2023/12/22 01:38:32;;;;;;;3.20;0.60;;;;;;;;;;21032202;28;20224;-67
2023/12/22 01:48:36;;;;;;;2.40;0.43;;;8.10;99.90;;;;;;21024730;28;20828;-67
2023/12/22 01:58:38;;;;;;;0.57;0.50;;;5.10;99.90;;;;;;21014206;28;20273;-67
2023/12/22 02:08:50;;;;;;;2.20;0.70;;;;;;;;;;21015390;28;20293;-67
2023/12/22 02:18:55;;;;;;;0.90;0.40;;;;;;;;;;21013906;28;20270;-69
2023/12/22 02:28:59;;;;;;;0.83;0.67;;;8.20;99.90;;;;;;21027011;28;20265;-67
2023/12/22 02:39:02;;;;;;;1.80;0.70;;;;;;;;;;21011011;28;20282;-67
2023/12/22 02:49:03;;;;;;;0.37;0.27;;;;;;;;;;21027521;28;20204;-67
2023/12/22 02:59:05;;;;;;;1.00;0.53;;;;;;;;;;21029707;28;20289;-67
2023/12/22 03:09:08;;;;;;;2.73;0.70;;;;;;;;;;21026115;28;20601;-67
2023/12/22 03:19:09;;;;;;;3.40;0.70;;;;;;;;;;21026575;28;20250;-67
2023/12/22 03:29:11;;;;;;;1.93;0.80;;;;;;;;;;21017508;28;20205;-67
2023/12/22 03:39:13;;;;;;;1.20;0.40;;;;;;;;;;21018951;28;20786;-67
2023/12/22 03:49:16;;;;;;;0.50;0.30;;;;;;;;;;21014883;28;20212;-67
2023/12/22 03:59:18;;;;;;;1.30;0.30;;;;;;;;;;21013212;28;20225;-67
2023/12/22 04:09:20;;;;;;;1.67;0.50;;;;;;;;;;21017207;28;20216;-67
2023/12/22 04:19:22;;;;;;;1.03;0.60;;;;;;;;;;21025380;22;20228;-74
2023/12/22 04:29:23;;;;;;;0.80;0.60;;;;;;;;;;20973977;28;20234;-75
2023/12/22 04:39:25;;;;;;;0.53;0.30;;;;;;;;;;20988373;28;20228;-75
2023/12/22 04:49:27;;;;;;;0.30;0.20;;;;;;;;;;20958065;28;20217;-73
2023/12/22 04:59:29;;;;;;;0.60;0.30;;;;;;;;;;20985879;28;20225;-73
2023/12/22 05:09:30;;;;;;;2.77;0.40;;;;;;;;;;20942699;28;20263;-73
2023/12/22 05:19:32;;;;;;;1.50;0.60;;;;;;;;;;20952569;28;20228;-73
2023/12/22 05:29:34;;;;;;;1.93;0.30;;;;;;;;;;20956878;28;20279;-74
2023/12/22 05:39:35;;;;;;;3.47;0.70;;;;;;;;;;20958441;28;20225;-74
2023/12/22 05:49:40;;;;;;;2.10;0.67;;;;;;;;;;20926611;28;20366;-74
2023/12/22 05:59:42;;;;;;;2.57;0.60;;;;;;;;;;20978330;28;20240;-74
2023/12/22 06:09:44;;;;;;;3.13;1.07;;;;;;;;;;20972145;28;20274;-75
2023/12/22 06:19:45;;;;;;;2.00;0.87;;;;;;;;;;20963290;28;20229;-75
2023/12/22 06:29:47;;;;;;;2.93;0.63;;;;;;;;;;20941967;28;20676;-74
2023/12/22 06:39:49;;;;;;;1.93;0.70;;;;;;;;;;20948162;28;20645;-75
2023/12/22 06:49:52;;;;;;;1.70;0.77;;;;;;;;;;20969998;28;20206;-75
2023/12/22 06:59:54;;;;;;;1.73;0.60;;;;;;;;;;20931654;28;20216;-75
2023/12/22 07:09:56;;;;;;;0.93;0.30;;;;;;;;;;20956531;28;20213;-75
2023/12/22 07:19:57;;;;;;;0.73;0.40;;;;;;;;;;20933787;28;20282;-75
2023/12/22 07:29:59;;;;;;;0.90;0.30;;;;;;;;;;20942390;28;20274;-74
2023/12/22 07:40:01;;;;;;;0.10;0.10;;;;;;;;;;20981977;28;20209;-75
2023/12/22 07:50:03;;;;;;;1.60;0.50;;;;;;;;;;20959504;28;20775;-76
2023/12/22 08:00:05;;;;;;;0.60;0.40;;;;;;;;;;20960648;28;20228;-75
2023/12/22 08:10:13;;;;;;;2.83;0.50;;;;;;;;;;20976577;28;20757;-75
2023/12/22 08:20:19;;;;;;;1.33;0.60;;;;;;;;;;20987118;28;20270;-75
2023/12/22 08:30:20;;;;;;;1.50;0.60;;;;;;;;;;20975719;28;20235;-76
2023/12/22 08:40:25;;;;;;;3.07;0.90;;;;;;;;;;20972884;28;20221;-75
2023/12/22 08:50:27;;;;;;;1.20;0.67;;;;;;;;;;20980887;28;20588;-74
2023/12/22 09:00:29;;;;;;;0.77;0.47;;;;;;;;;;20979815;28;20296;-76
2023/12/22 09:10:32;;;;;;;3.93;1.20;;;;;;;;;;20972263;28;20278;-76
2023/12/22 09:20:34;;;;;;;3.50;1.20;;;;;;;;;;20950667;28;20282;-77
2023/12/22 09:30:35;;;;;;;4.13;1.00;;;;;;;;;;20946976;28;20205;-77
2023/12/22 09:40:38;;;;;;;4.87;1.10;;;;;;;;;;20973089;28;20235;-77
2023/12/22 09:50:40;;;;;;;3.67;1.20;;;;;;;;;;20955161;28;20761;-77
2023/12/22 10:00:42;;;;;;;4.73;0.70;;;8.40;99.90;;;;;;20947841;28;20562;-77
2023/12/22 10:10:47;;;;;;;5.27;1.33;;;8.50;99.90;;;;;;20953853;28;20229;-77
2023/12/22 10:20:49;;;;;;;2.73;1.17;;;;;;;;;;20982136;28;20295;-77
2023/12/22 10:30:51;;;;;;;2.40;0.57;;;;;;;;;;20968671;22;20279;-82
2023/12/22 10:40:52;;;;;;;4.17;0.73;;;;;;;;;;20928679;28;20224;-81
2023/12/22 10:50:55;;;;;;;3.83;1.40;;;;;;;;;;20942529;28;20278;-82
2023/12/22 11:00:57;;;;;;;2.23;0.83;;;8.90;99.90;;;;;;20940550;28;20221;-81
2023/12/22 11:10:59;;;;;;;1.40;0.60;;;;;;;;;;20947092;28;20212;-83
2023/12/22 11:21:02;;;;;;;3.57;0.60;;;;;;;;;;20915841;28;20323;-82
2023/12/22 11:31:05;;;;;;;2.10;0.60;;;;;;;;;;20942722;28;20229;-83
2023/12/22 11:41:08;;;;;;;0.97;0.50;;;;;;;;;;20970331;28;20279;-83
2023/12/22 11:51:14;;;;;;;0.53;0.30;;;;;;;;;;20947108;28;20217;-82
2023/12/22 12:01:16;;;;;;;0.57;0.33;;;;;;;;;;20960500;28;20217;-81
2023/12/22 12:11:20;;;;;;;0.30;0.27;;;8.80;99.90;;;;;;20973980;28;20259;-82
2023/12/22 12:21:22;;;;;;;0.83;0.20;;;;;;;;;;20963461;28;20644;-83
2023/12/22 12:31:37;;;;;;;0.20;0.10;;;;;;;;;;20907572;28;20295;-84
2023/12/22 12:41:46;;;;;;;0.10;0.10;;;8.80;99.90;;;;;;20935021;28;20682;-81
2023/12/22 12:51:48;;;;;;;0.10;0.10;;;;;;;;;;20989033;28;20213;-81
2023/12/22 13:01:50;;;;;;;0.33;0.20;;;;;;;;;;20976889;28;20225;-84
2023/12/22 13:11:53;;;;;;;0.10;0.10;;;;;;;;;;20986736;28;20269;-83
2023/12/22 13:21:55;;;;;;;0.30;0.20;;;;;;;;;;20919528;28;20592;-82
2023/12/22 13:31:57;;;;;;;0.20;0.20;;;;;;;;;;20892907;28;20289;-83
2023/12/22 13:41:59;;;;;;;0.30;0.20;;;;;;;;;;20925397;28;20233;-87
2023/12/22 13:52:06;;;;;;;0.77;0.40;;;;;;;;;;20948745;28;20228;-82
2023/12/22 14:02:08;;;;;;;4.80;2.90;;;;;;;;;;20916214;28;20255;-84
2023/12/22 14:12:09;;;;;;;1.77;0.90;;;;;;;;;;20913434;28;20217;-82
2023/12/22 14:22:11;;;;;;;2.67;1.40;;;;;;;;;;20951882;28;20290;-82
2023/12/22 14:32:14;;;;;;;0.77;0.50;;;;;;;;;;20901933;28;20213;-83
2023/12/22 14:42:16;;;;;;;2.13;0.60;;;;;;;;;;20900887;28;20229;-82
2023/12/22 14:52:18;;;;;;;0.63;0.30;;;;;;;;;;20919790;28;20210;-83
2023/12/22 15:02:19;;;;;;;0.20;0.20;;;;;;;;;;20934015;28;20568;-80
2023/12/22 15:12:21;;;;;;;0.20;0.20;;;;;;;;;;20946221;28;20226;-82
2023/12/22 15:22:24;;;;;;;0.13;0.13;;;;;;;;;;20946443;28;20247;-82
2023/12/22 15:32:27;;;;;;;1.13;0.40;;;;;;;;;;20954990;28;20217;-81
2023/12/22 15:42:29;;;;;;;0.70;0.50;;;;;;;;;;20961961;28;20236;-81
2023/12/22 15:52:48;;;;;;;0.30;0.30;;;;;;;;;;20972809;28;20278;-88
2023/12/22 16:02:51;;;;;;;0.20;0.20;;;;;;;;;;20914460;28;20735;-84
2023/12/22 16:12:52;;;;;;;0.23;0.20;;;;;;;;;;20867946;28;20229;-83
2023/12/22 16:22:54;;;;;;;0.30;0.20;;;;;;;;;;20843994;28;20209;-82
2023/12/22 16:32:56;;;;;;;0.20;0.20;;;;;;;;;;20952592;28;20236;-83
2023/12/22 16:42:57;;;;;;;0.20;0.20;;;;;;;;;;20919916;28;20271;-82
2023/12/22 16:52:59;;;;;;;0.20;0.20;;;;;;;;;;20951830;28;20227;-81
2023/12/22 17:03:01;;;;;;;0.20;0.20;;;;;;;;;;20998359;28;20673;-83
2023/12/22 17:13:04;;;;;;;0.10;0.10;;;;;;;;;;20983664;28;20753;-82
2023/12/22 17:23:06;;;;;;;0.30;0.20;;;;;;;;;;20943218;28;20921;-82
2023/12/22 17:33:07;;;;;;;0.20;0.20;;;;;;;;;;20911562;28;20218;-83
2023/12/22 17:43:09;;;;;;;0.10;0.10;;;;;;;;;;20963954;28;20231;-83
2023/12/22 17:53:11;;;;;;;0.60;0.30;;;;;;;;;;20959508;28;20217;-81
2023/12/22 18:03:14;;;;;;;0.20;0.20;;;;;;;;;;20810948;23;20739;-70
2023/12/22 18:13:16;;;;;;;0.63;0.37;;;;;;;;;;20796495;28;20253;-68
2023/12/22 18:23:19;;;;;;;0.50;0.40;;;;;;;;;;20777262;28;20268;-69
2023/12/22 18:33:23;;;;;;;0.20;0.20;;;;;;;;;;20796703;28;20214;-68
2023/12/22 18:43:25;;;;;;;0.67;0.30;;;;;;;;;;20793153;28;20245;-69
2023/12/22 18:53:27;;;;;;;0.83;0.30;;;;;;;;;;20766553;28;20276;-68
2023/12/22 19:03:29;;;;;;;0.20;0.20;;;;;;;;;;20802390;28;20234;-67
2023/12/22 19:13:31;;;;;;;1.00;0.20;;;;;;;;;;20815878;28;20230;-68
2023/12/22 19:23:32;;;;;;;0.83;0.40;;;;;;;;;;20786164;28;20932;-70
2023/12/22 19:33:36;;;;;;;0.47;0.20;;;;;;;;;;20792406;28;20325;-70
2023/12/22 19:43:38;;;;;;;0.20;0.20;;;;;;;;;;20817222;28;20249;-67
2023/12/22 19:53:39;;;;;;;0.23;0.23;;;;;;;;;;20795280;28;20226;-67
2023/12/22 20:03:41;;;;;;;0.27;0.20;;;;;;;;;;20783566;28;20235;-67
2023/12/22 20:13:43;;;;;;;0.37;0.27;;;;;;;;;;20800168;28;20640;-67
2023/12/22 20:23:45;;;;;;;0.67;0.20;;;;;;;;;;20814924;28;20561;-67
2023/12/22 20:33:47;;;;;;;0.57;0.43;;;;;;;;;;20816788;28;21470;-67
2023/12/22 20:43:49;;;;;;;0.90;0.40;;;;;;;;;;20809631;28;20211;-66
2023/12/22 20:53:51;;;;;;;0.23;0.20;;;;;;;;;;20784924;28;20237;-67
2023/12/22 21:03:53;;;;;;;0.37;0.20;;;;;;;;;;20789545;28;20267;-69
2023/12/22 21:13:55;;;;;;;0.83;0.30;;;;;;;;;;20770580;28;20674;-72
2023/12/22 21:23:57;;;;;;;0.23;0.23;;;;;;;;;;20814310;28;20905;-69
2023/12/22 21:33:59;;;;;;;0.30;0.30;;;;;;;;;;20797115;28;20258;-69
2023/12/22 21:44:02;;;;;;;0.20;0.13;;;;;;;;;;20862636;22;20233;-84
2023/12/22 21:54:04;;;;;;;0.20;0.20;;;;;;;;;;20967171;28;20221;-85
2023/12/22 22:04:06;;;;;;;0.50;0.30;;;;;;;;;;21042425;28;20209;-86
2023/12/22 22:14:08;;;;;;;0.40;0.30;;;;;;;;;;20980959;28;20216;-83
2023/12/22 22:24:09;;;;;;;0.40;0.20;;;;;;;;;;20973683;28;20208;-83
2023/12/22 22:34:11;;;;;;;1.63;0.43;;;;;;;;;;20968511;28;20215;-83
2023/12/22 22:44:13;;;;;;;1.13;0.37;;;;;;;;;;20993737;28;20208;-85
2023/12/22 22:54:14;;;;;;;0.73;0.37;;;;;;;;;;20986357;28;20573;-83
2023/12/22 23:04:16;;;;;;;0.30;0.30;;;;;;;;;;21025806;28;20247;-86
2023/12/22 23:14:18;;;;;;;0.27;0.20;;;;;;;;;;21001852;28;20213;-83
2023/12/22 23:24:20;;;;;;;0.30;0.20;;;;;;;;;;21023705;28;20293;-84
2023/12/22 23:34:22;;;;;;;0.30;0.17;;;;;;;;;;21030663;28;20290;-83
2023/12/22 23:44:23;;;;;;;0.90;0.40;;;;;;;;;;21004258;28;20282;-83
2023/12/22 23:54:25;;;;;;;0.83;0.37;;;;;;;;;;21036916;28;20217;-83
